HRYR

Kigali International Airport

Kigali, Rwanda
METAR HRYR 191100Z 31015KT 9999 -TSRA BKN038 22/15 Q1019 NOSIG
Observed Flight Rules
Dec-19 @ 11:00 UTC (39 minutes ago) Visual Flight Rules
Wind Visibility Clouds Conditions
310° at 15 knots 10,000+ meters
  • Broken at 3,800' AGL
  • Light Thunderstorm
  • Light Rain
Temperatures Readings
Current 22°C / 72°F
Dewpoint 15°C / 59°F
Humidity 65%
Altimeter 30.09" Hg
Pressure 1019 hPa
Elevation 1497
METAR HRYR 191100Z 31015KT 9999 -TSRA BKN038 22/15 Q1019 NOSIG
Observed Flight Rules
Dec-19 @ 11:00 UTC
(39 minutes ago)
VFR
Wind Visibility
310° at 15 knots 10,000+ meters
Clouds
  • Broken at 3,800' AGL
Conditions
  • Light Thunderstorm
  • Light Rain
Temperature Dewpoint
22°C / 72°F 15°C / 59°F
Humidity Altimeter Pressure
65% 30.09" Hg 1019 hPa